createdAt,value
2023-04-02T00:00:12.290Z,90.89
2023-04-02T00:03:09.215Z,90.79
2023-04-02T00:05:52.747Z,90.88
2023-04-02T00:08:26.666Z,90.87
2023-04-02T00:11:02.229Z,90.84
2023-04-02T00:13:33.187Z,90.89
2023-04-02T00:16:03.670Z,90.66
2023-04-02T00:18:34.495Z,90.61
2023-04-02T00:21:29.368Z,90.42
2023-04-02T00:24:01.480Z,90.33
2023-04-02T00:26:43.266Z,90.47
2023-04-02T00:29:13.796Z,90.48
2023-04-02T00:31:45.845Z,90.42
2023-04-02T00:34:37.127Z,90.55
2023-04-02T00:37:06.161Z,90.36
2023-04-02T00:39:43.448Z,90.31
2023-04-02T00:42:13.483Z,90.23
2023-04-02T00:44:45.630Z,90.14
2023-04-02T00:47:33.921Z,90.07
2023-04-02T00:50:19.024Z,89.97
2023-04-02T00:52:51.214Z,89.97
2023-04-02T00:55:27.796Z,89.77
2023-04-02T00:58:00.568Z,89.75
2023-04-02T01:00:36.493Z,89.74
2023-04-02T01:03:17.290Z,89.72
2023-04-02T01:05:50.599Z,89.41
2023-04-02T01:08:31.857Z,89.28
2023-04-02T01:11:21.783Z,89.17
2023-04-02T01:14:05.519Z,89.03
2023-04-02T01:16:54.345Z,89.00
2023-04-02T01:20:01.125Z,89.14
2023-04-02T01:22:48.348Z,89.18
2023-04-02T01:25:24.533Z,88.76
2023-04-02T01:28:05.287Z,88.84
2023-04-02T01:30:36.976Z,88.54
2023-04-02T01:33:07.347Z,88.37
2023-04-02T01:35:43.559Z,88.32
2023-04-02T01:38:19.439Z,88.30
2023-04-02T01:41:02.383Z,88.17
2023-04-02T01:43:49.820Z,88.16
2023-04-02T01:46:32.341Z,88.20
2023-04-02T01:49:04.993Z,88.18
2023-04-02T01:51:35.347Z,88.54
2023-04-02T01:54:08.105Z,88.68
2023-04-02T01:56:37.033Z,88.84
2023-04-02T01:59:07.122Z,89.25
2023-04-02T02:01:48.839Z,89.50
2023-04-02T02:04:19.758Z,89.57
2023-04-02T02:06:48.526Z,89.62
2023-04-02T02:09:24.042Z,89.58
2023-04-02T02:11:52.777Z,89.56
2023-04-02T02:14:27.421Z,89.65
2023-04-02T02:17:00.408Z,89.70
2023-04-02T02:19:55.251Z,89.84
2023-04-02T02:22:39.367Z,89.96
2023-04-02T02:25:17.445Z,90.06
2023-04-02T02:27:50.009Z,90.13
2023-04-02T02:30:31.709Z,90.15
2023-04-02T02:33:14.631Z,90.32
2023-04-02T02:35:52.531Z,90.43
2023-04-02T02:38:35.564Z,90.53
2023-04-02T02:41:18.157Z,90.63
2023-04-02T02:44:02.341Z,90.61
2023-04-02T02:46:34.201Z,90.66
2023-04-02T02:49:05.206Z,90.53
2023-04-02T02:51:46.512Z,90.47
2023-04-02T02:54:19.994Z,90.55
2023-04-02T02:56:57.150Z,90.53
2023-04-02T02:59:28.825Z,90.60
2023-04-02T03:01:58.430Z,90.65
2023-04-02T03:04:30.811Z,90.82
2023-04-02T03:07:00.031Z,90.76
2023-04-02T03:09:39.635Z,90.89
2023-04-02T03:12:44.324Z,90.92
2023-04-02T03:15:39.029Z,90.94
2023-04-02T03:18:16.658Z,90.95
2023-04-02T03:20:57.544Z,91.07
2023-04-02T03:23:36.060Z,91.02
2023-04-02T03:26:32.907Z,91.07
2023-04-02T03:29:29.947Z,91.03
2023-04-02T03:32:17.371Z,90.95
2023-04-02T03:35:02.058Z,90.87
2023-04-02T03:37:42.698Z,90.30
2023-04-02T03:40:21.252Z,89.88
2023-04-02T03:42:56.968Z,89.89
2023-04-02T03:45:32.779Z,90.02
2023-04-02T03:48:07.449Z,89.94
2023-04-02T03:50:41.151Z,89.77
2023-04-02T03:53:09.956Z,89.56
2023-04-02T03:55:42.924Z,89.75
2023-04-02T03:58:17.452Z,89.49
2023-04-02T04:01:01.990Z,89.54
2023-04-02T04:03:39.869Z,89.67
2023-04-02T04:06:21.500Z,89.18
2023-04-02T04:08:55.501Z,89.23
2023-04-02T04:11:31.173Z,88.88
2023-04-02T04:14:10.595Z,88.69
2023-04-02T04:16:47.695Z,88.61
2023-04-02T04:19:40.111Z,88.40
2023-04-02T04:22:30.694Z,88.40
2023-04-02T04:25:18.342Z,88.60
2023-04-02T04:28:08.059Z,88.36
2023-04-02T04:30:52.572Z,88.05
2023-04-02T04:33:34.779Z,88.01
2023-04-02T04:36:14.965Z,87.57
2023-04-02T04:38:55.527Z,87.85
2023-04-02T04:41:30.235Z,87.82
2023-04-02T04:44:10.793Z,88.12
2023-04-02T04:46:48.160Z,88.17
2023-04-02T04:49:36.229Z,88.08
2023-04-02T04:52:22.439Z,88.21
2023-04-02T04:54:53.457Z,88.32
2023-04-02T04:57:42.427Z,88.53
2023-04-02T05:00:23.199Z,89.17
2023-04-02T05:03:14.348Z,89.21
2023-04-02T05:05:45.136Z,89.11
2023-04-02T05:08:27.346Z,89.24
2023-04-02T05:11:01.475Z,89.38
2023-04-02T05:13:36.481Z,89.22
2023-04-02T05:16:44.836Z,89.10
2023-04-02T05:19:17.071Z,88.61
2023-04-02T05:21:57.573Z,88.77
2023-04-02T05:24:54.698Z,88.86
2023-04-02T05:27:31.982Z,88.85
2023-04-02T05:30:13.460Z,89.02
2023-04-02T05:32:48.960Z,88.79
2023-04-02T05:35:21.341Z,89.00
2023-04-02T05:37:50.782Z,89.38
2023-04-02T05:40:31.341Z,89.40
2023-04-02T05:43:08.254Z,89.38
2023-04-02T05:45:44.526Z,89.43
2023-04-02T05:48:35.601Z,89.54
2023-04-02T05:51:08.781Z,89.65
2023-04-02T05:53:46.083Z,89.65
2023-04-02T05:56:26.656Z,89.74
2023-04-02T05:59:03.416Z,89.80
2023-04-02T06:01:49.938Z,89.58
2023-04-02T06:04:45.122Z,89.81
2023-04-02T06:07:29.829Z,89.63
2023-04-02T06:10:10.426Z,89.56
2023-04-02T06:12:55.865Z,89.71
2023-04-02T06:15:25.236Z,89.78
2023-04-02T06:18:08.666Z,89.58
2023-04-02T06:20:39.307Z,89.55
2023-04-02T06:23:14.286Z,89.78
2023-04-02T06:26:26.547Z,89.91
2023-04-02T06:29:14.486Z,89.67
2023-04-02T06:31:49.723Z,89.82
2023-04-02T06:34:22.627Z,89.84
2023-04-02T06:37:03.057Z,89.75
2023-04-02T06:39:32.807Z,89.71
2023-04-02T06:42:11.427Z,89.55
2023-04-02T06:44:58.605Z,89.59
2023-04-02T06:47:54.157Z,89.71
2023-04-02T06:50:53.683Z,89.69
2023-04-02T06:53:28.217Z,89.59
2023-04-02T06:56:03.213Z,89.48
2023-04-02T06:58:33.285Z,89.48
2023-04-02T07:01:02.319Z,89.68
2023-04-02T07:03:44.198Z,89.69
2023-04-02T07:06:45.321Z,89.68
2023-04-02T07:09:16.486Z,89.87
2023-04-02T07:11:49.062Z,89.86
2023-04-02T07:14:18.872Z,89.77
2023-04-02T07:16:48.180Z,89.88
2023-04-02T07:19:23.031Z,89.84
2023-04-02T07:21:55.590Z,89.71
2023-04-02T07:24:26.006Z,89.91
2023-04-02T07:26:54.908Z,89.90
2023-04-02T07:29:23.687Z,89.74
2023-04-02T07:31:54.221Z,89.75
2023-04-02T07:34:22.694Z,89.93
2023-04-02T07:36:51.907Z,90.01
2023-04-02T07:39:20.433Z,90.05
2023-04-02T07:41:57.864Z,90.06
2023-04-02T07:44:27.773Z,90.21
2023-04-02T07:46:56.511Z,90.16
2023-04-02T07:49:25.495Z,90.07
2023-04-02T07:51:54.145Z,89.88
2023-04-02T07:54:22.831Z,89.88
2023-04-02T07:56:52.067Z,90.00
2023-04-02T07:59:20.824Z,90.15
2023-04-02T08:01:49.211Z,90.11
2023-04-02T08:04:20.797Z,90.03
2023-04-02T08:06:50.863Z,90.07
2023-04-02T08:09:19.764Z,89.71
2023-04-02T08:11:48.665Z,89.87
2023-04-02T08:14:17.154Z,89.80
2023-04-02T08:16:49.155Z,90.14
2023-04-02T08:19:18.348Z,90.25
2023-04-02T08:21:51.027Z,90.16
2023-04-02T08:24:21.632Z,89.83
2023-04-02T08:26:54.692Z,89.67
2023-04-02T08:29:24.233Z,89.82
2023-04-02T08:31:52.888Z,89.91
2023-04-02T08:34:21.777Z,89.58
2023-04-02T08:36:56.607Z,89.74
2023-04-02T08:39:29.484Z,90.03
2023-04-02T08:42:22.140Z,89.94
2023-04-02T08:45:21.296Z,89.83
2023-04-02T08:47:56.716Z,90.01
2023-04-02T08:50:33.125Z,89.76
2023-04-02T08:53:05.359Z,89.74
2023-04-02T08:55:43.276Z,90.05
2023-04-02T08:58:29.716Z,90.17
2023-04-02T09:01:02.574Z,90.07
2023-04-02T09:03:37.540Z,89.81
2023-04-02T09:06:14.279Z,89.64
2023-04-02T09:08:47.519Z,89.98
2023-04-02T09:11:42.655Z,89.68
2023-04-02T09:14:19.796Z,89.34
2023-04-02T09:16:53.591Z,89.57
2023-04-02T09:19:31.700Z,89.50
2023-04-02T09:22:02.700Z,89.78
2023-04-02T09:24:33.606Z,89.85
2023-04-02T09:27:03.012Z,89.86
2023-04-02T09:29:45.397Z,90.01
2023-04-02T09:32:35.512Z,89.77
2023-04-02T09:35:24.766Z,89.83
2023-04-02T09:38:10.653Z,89.71
2023-04-02T09:41:07.707Z,89.22
2023-04-02T09:43:38.523Z,89.58
2023-04-02T09:46:19.046Z,89.24
2023-04-02T09:48:55.275Z,89.11
2023-04-02T09:51:26.595Z,88.15
2023-04-02T09:54:04.539Z,88.23
2023-04-02T09:56:38.980Z,87.65
2023-04-02T09:59:18.669Z,87.64
2023-04-02T10:01:58.754Z,88.55
2023-04-02T10:04:45.453Z,87.92
2023-04-02T10:07:35.802Z,87.45
2023-04-02T10:10:35.663Z,87.27
2023-04-02T10:13:22.316Z,87.43
2023-04-02T10:16:05.279Z,86.94
2023-04-02T10:19:00.241Z,86.03
2023-04-02T10:21:40.310Z,85.72
2023-04-02T10:24:19.034Z,86.56
2023-04-02T10:26:58.893Z,85.29
2023-04-02T10:29:44.156Z,86.67
2023-04-02T10:32:19.088Z,86.82
2023-04-02T10:35:23.003Z,86.99
2023-04-02T10:38:02.348Z,86.61
2023-04-02T10:40:59.795Z,85.11
2023-04-02T10:43:31.159Z,85.24
2023-04-02T10:46:13.880Z,85.57
2023-04-02T10:49:10.739Z,85.79
2023-04-02T10:51:47.100Z,85.68
2023-04-02T10:54:41.765Z,85.94
2023-04-02T10:57:10.927Z,87.39
2023-04-02T10:59:45.087Z,86.89
2023-04-02T11:02:51.655Z,88.70
2023-04-02T11:05:25.976Z,89.17
2023-04-02T11:08:04.613Z,89.00
2023-04-02T11:10:40.544Z,89.31
2023-04-02T11:13:15.279Z,89.55
2023-04-02T11:15:44.995Z,90.03
2023-04-02T11:18:29.559Z,89.84
2023-04-02T11:21:01.071Z,89.39
2023-04-02T11:23:36.427Z,89.89
2023-04-02T11:26:37.576Z,89.91
2023-04-02T11:29:28.602Z,90.15
2023-04-02T11:32:21.529Z,90.39
2023-04-02T11:34:59.894Z,90.58
2023-04-02T11:37:45.491Z,90.30
2023-04-02T11:40:14.436Z,89.77
2023-04-02T11:42:53.474Z,89.14
2023-04-02T11:45:29.043Z,88.63
2023-04-02T11:48:08.534Z,88.44
2023-04-02T11:50:38.676Z,87.78
2023-04-02T11:53:13.904Z,87.17
2023-04-02T11:55:45.916Z,86.51
2023-04-02T11:58:34.338Z,87.40
2023-04-02T12:01:16.388Z,87.48
2023-04-02T12:03:47.989Z,87.21
2023-04-02T12:06:28.426Z,85.64
2023-04-02T12:09:25.298Z,84.87
2023-04-02T12:12:26.324Z,84.64
2023-04-02T12:14:57.903Z,84.18
2023-04-02T12:17:38.268Z,83.04
2023-04-02T12:20:09.156Z,82.82
2023-04-02T12:22:49.628Z,81.74
2023-04-02T12:25:40.516Z,81.49
2023-04-02T12:28:20.007Z,81.23
2023-04-02T12:30:51.505Z,81.89
2023-04-02T12:33:20.387Z,82.58
2023-04-02T12:36:01.899Z,81.76
2023-04-02T12:38:34.275Z,81.22
2023-04-02T12:41:21.872Z,81.73
2023-04-02T12:44:02.022Z,82.33
2023-04-02T12:46:33.320Z,82.93
2023-04-02T12:49:23.824Z,84.28
2023-04-02T12:51:53.423Z,84.78
2023-04-02T12:54:22.920Z,85.26
2023-04-02T12:56:55.176Z,84.11
2023-04-02T12:59:29.711Z,83.90
2023-04-02T13:02:02.770Z,83.55
2023-04-02T13:04:46.639Z,83.07
2023-04-02T13:07:18.812Z,82.76
2023-04-02T13:09:53.696Z,83.61
2023-04-02T13:12:27.139Z,82.64
2023-04-02T13:14:57.867Z,82.67
2023-04-02T13:17:48.939Z,81.77
2023-04-02T13:20:40.070Z,82.33
2023-04-02T13:23:27.348Z,81.94
2023-04-02T13:26:16.576Z,82.46
2023-04-02T13:29:01.587Z,81.78
2023-04-02T13:31:32.873Z,81.89
2023-04-02T13:34:01.992Z,81.64
2023-04-02T13:36:32.359Z,81.42
2023-04-02T13:39:01.442Z,81.56
2023-04-02T13:41:34.101Z,81.58
2023-04-02T13:44:03.703Z,82.33
2023-04-02T13:46:35.044Z,82.34
2023-04-02T13:49:03.531Z,82.63
2023-04-02T13:51:59.083Z,83.30
2023-04-02T13:54:43.918Z,84.34
2023-04-02T13:57:12.757Z,84.71
2023-04-02T13:59:42.399Z,84.56
2023-04-02T14:02:20.843Z,85.02
2023-04-02T14:04:58.105Z,84.94
2023-04-02T14:07:37.450Z,85.02
2023-04-02T14:10:32.444Z,85.16
2023-04-02T14:13:07.181Z,85.59
2023-04-02T14:16:28.132Z,85.90
2023-04-02T14:19:04.344Z,86.18
2023-04-02T14:21:35.899Z,86.42
2023-04-02T14:24:18.333Z,86.44
2023-04-02T14:26:58.257Z,86.66
2023-04-02T14:29:44.860Z,86.97
2023-04-02T14:32:55.169Z,87.11
2023-04-02T14:35:31.827Z,87.20
2023-04-02T14:38:09.086Z,87.17
2023-04-02T14:40:50.375Z,87.39
2023-04-02T14:43:38.709Z,87.55
2023-04-02T14:46:10.620Z,87.63
2023-04-02T14:48:52.891Z,87.54
2023-04-02T14:51:37.522Z,87.54
2023-04-02T14:54:40.291Z,87.43
2023-04-02T14:57:21.808Z,87.36
2023-04-02T15:00:13.652Z,87.37
2023-04-02T15:03:04.616Z,87.35
2023-04-02T15:05:46.658Z,87.37
2023-04-02T15:08:15.126Z,87.16
2023-04-02T15:10:52.730Z,87.12
2023-04-02T15:13:27.435Z,87.17
2023-04-02T15:16:21.658Z,87.17
2023-04-02T15:18:53.914Z,87.12
2023-04-02T15:21:49.786Z,87.18
2023-04-02T15:25:03.914Z,87.04
2023-04-02T15:27:39.821Z,86.91
2023-04-02T15:30:22.296Z,86.75
2023-04-02T15:32:52.726Z,86.72
2023-04-02T15:35:39.974Z,86.80
2023-04-02T15:38:24.542Z,86.80
2023-04-02T15:41:14.748Z,86.71
2023-04-02T15:44:10.269Z,86.86
2023-04-02T15:46:57.597Z,86.94
2023-04-02T15:49:54.316Z,86.92
2023-04-02T15:52:40.516Z,87.00
2023-04-02T15:55:21.170Z,86.70
2023-04-02T15:58:17.440Z,86.69
2023-04-02T16:00:49.396Z,86.85
2023-04-02T16:03:21.170Z,86.83
2023-04-02T16:06:17.298Z,86.83
2023-04-02T16:09:18.411Z,86.93
2023-04-02T16:11:46.889Z,87.01
2023-04-02T16:14:15.792Z,86.96
2023-04-02T16:16:48.311Z,87.16
2023-04-02T16:19:41.815Z,87.27
2023-04-02T16:22:27.851Z,87.57
2023-04-02T16:25:14.313Z,87.81
2023-04-02T16:27:46.233Z,87.86
2023-04-02T16:30:26.949Z,87.60
2023-04-02T16:32:58.363Z,87.61
2023-04-02T16:35:43.767Z,87.62
2023-04-02T16:38:20.952Z,87.71
2023-04-02T16:41:09.113Z,87.68
2023-04-02T16:44:10.472Z,87.54
2023-04-02T16:47:03.189Z,87.67
2023-04-02T16:49:47.960Z,87.53
2023-04-02T16:52:43.545Z,87.84
2023-04-02T16:55:39.302Z,87.64
2023-04-02T16:58:33.893Z,86.70
2023-04-02T17:01:08.931Z,86.64
2023-04-02T17:03:37.391Z,86.54
2023-04-02T17:06:15.829Z,86.85
2023-04-02T17:08:50.952Z,86.74
2023-04-02T17:11:32.900Z,86.72
2023-04-02T17:14:13.032Z,86.83
2023-04-02T17:16:50.825Z,87.17
2023-04-02T17:19:21.074Z,87.75
2023-04-02T17:21:53.533Z,88.19
2023-04-02T17:24:44.821Z,88.49
2023-04-02T17:27:37.199Z,88.75
2023-04-02T17:30:31.776Z,88.89
2023-04-02T17:33:00.506Z,88.66
2023-04-02T17:36:00.506Z,88.46
2023-04-02T17:38:54.254Z,87.90
2023-04-02T17:41:49.072Z,88.42
2023-04-02T17:44:33.802Z,88.84
2023-04-02T17:47:33.764Z,88.70
2023-04-02T17:50:17.760Z,88.71
2023-04-02T17:52:57.608Z,88.39
2023-04-02T17:55:58.141Z,88.24
2023-04-02T17:58:41.949Z,87.54
2023-04-02T18:01:20.262Z,87.79
2023-04-02T18:04:10.984Z,86.60
2023-04-02T18:06:44.608Z,87.15
2023-04-02T18:09:13.175Z,87.41
2023-04-02T18:12:08.973Z,87.77
2023-04-02T18:15:04.405Z,86.98
2023-04-02T18:18:03.848Z,86.81
2023-04-02T18:20:36.923Z,86.59
2023-04-02T18:23:12.655Z,87.11
2023-04-02T20:53:41.206Z,86.95
2023-04-02T20:56:12.991Z,86.87
2023-04-02T20:58:42.899Z,86.33
2023-04-02T21:01:20.003Z,86.53
2023-04-02T21:03:49.987Z,86.76
2023-04-02T21:06:21.569Z,86.69
2023-04-02T21:08:51.068Z,86.88
2023-04-02T21:11:20.238Z,87.08
2023-04-02T21:13:49.957Z,86.89
2023-04-02T21:16:30.044Z,87.20
2023-04-02T21:19:02.467Z,87.13
2023-04-02T21:21:31.386Z,86.79
2023-04-02T21:24:02.241Z,86.63
2023-04-02T21:26:34.803Z,86.34
2023-04-02T21:32:41.614Z,86.25
2023-04-02T21:35:10.159Z,86.49
2023-04-02T21:37:38.749Z,86.39
2023-04-02T21:40:08.647Z,86.82
2023-04-02T21:42:37.241Z,86.48
2023-04-02T21:45:06.731Z,86.42
2023-04-02T21:47:35.252Z,86.75
2023-04-02T21:50:04.680Z,86.36
2023-04-02T21:52:33.203Z,86.63
2023-04-02T21:55:01.888Z,86.68
2023-04-02T21:57:32.432Z,86.30
2023-04-02T22:00:01.423Z,86.68
2023-04-02T22:02:31.580Z,87.01
2023-04-02T22:05:00.181Z,86.64
2023-04-02T22:07:29.037Z,86.58
2023-04-02T22:09:59.220Z,86.94
2023-04-02T22:12:28.033Z,86.98
2023-04-02T22:14:56.732Z,86.93
2023-04-02T22:17:25.641Z,87.13
2023-04-02T22:19:54.273Z,87.03
2023-04-02T22:22:22.964Z,86.76
2023-04-02T22:24:51.646Z,87.06
2023-04-02T22:27:20.358Z,86.96
2023-04-02T22:29:49.058Z,86.90
2023-04-02T22:32:17.905Z,87.31
2023-04-02T22:34:46.701Z,87.37
2023-04-02T22:37:15.170Z,87.42
2023-04-02T22:39:43.841Z,87.70
2023-04-02T22:42:12.246Z,87.51
2023-04-02T22:44:40.824Z,87.82
2023-04-02T22:47:09.325Z,87.87
2023-04-02T22:49:38.457Z,87.61
2023-04-02T22:52:07.193Z,87.95
2023-04-02T22:54:35.582Z,87.83
2023-04-02T22:57:04.385Z,87.86
2023-04-02T22:59:33.042Z,87.90
2023-04-02T23:02:01.831Z,87.72
2023-04-02T23:04:30.408Z,87.88
2023-04-02T23:06:58.892Z,87.87
2023-04-02T23:09:27.482Z,88.05
2023-04-02T23:11:55.853Z,87.86
2023-04-02T23:14:24.332Z,87.88
2023-04-02T23:16:53.027Z,87.72
2023-04-02T23:19:21.402Z,87.40
2023-04-02T23:21:50.032Z,87.56
2023-04-02T23:24:18.560Z,87.70
2023-04-02T23:26:47.986Z,87.23
2023-04-02T23:29:17.885Z,87.07
2023-04-02T23:31:46.281Z,87.09
2023-04-02T23:34:15.067Z,87.40
2023-04-02T23:36:43.431Z,86.96
2023-04-02T23:39:13.547Z,86.64
2023-04-02T23:41:43.260Z,86.27
2023-04-02T23:44:12.142Z,86.35
2023-04-02T23:46:40.554Z,86.27
2023-04-02T23:49:12.784Z,85.95
2023-04-02T23:51:41.803Z,85.93
2023-04-02T23:54:12.426Z,85.53
2023-04-02T23:56:42.215Z,86.45
2023-04-02T23:59:10.817Z,86.54
